sensor_id;sensor_type;location;lat;lon;timestamp;P1;durP1;ratioP1;P2;durP2;ratioP2
50549;SDS011;36505;52.512;13.460;2023-12-04T00:01:29;35.85;;;17.25;;
50549;SDS011;36505;52.512;13.460;2023-12-04T00:03:55;29.88;;;13.90;;
50549;SDS011;36505;52.512;13.460;2023-12-04T00:06:23;31.38;;;15.05;;
50549;SDS011;36505;52.512;13.460;2023-12-04T00:08:50;34.75;;;14.13;;
50549;SDS011;36505;52.512;13.460;2023-12-04T00:11:15;32.40;;;14.55;;
50549;SDS011;36505;52.512;13.460;2023-12-04T00:13:40;32.10;;;14.25;;
50549;SDS011;36505;52.512;13.460;2023-12-04T00:16:06;28.23;;;16.13;;
50549;SDS011;36505;52.512;13.460;2023-12-04T00:18:32;36.53;;;15.32;;
50549;SDS011;36505;52.512;13.460;2023-12-04T00:20:57;36.10;;;16.25;;
50549;SDS011;36505;52.512;13.460;2023-12-04T00:23:23;36.00;;;16.23;;
50549;SDS011;36505;52.512;13.460;2023-12-04T00:25:48;35.60;;;16.40;;
50549;SDS011;36505;52.512;13.460;2023-12-04T00:28:13;32.30;;;14.93;;
50549;SDS011;36505;52.512;13.460;2023-12-04T00:30:39;30.13;;;15.00;;
50549;SDS011;36505;52.512;13.460;2023-12-04T00:33:04;34.75;;;14.65;;
50549;SDS011;36505;52.512;13.460;2023-12-04T00:35:30;29.95;;;14.45;;
50549;SDS011;36505;52.512;13.460;2023-12-04T00:37:55;41.75;;;17.75;;
50549;SDS011;36505;52.512;13.460;2023-12-04T00:40:20;33.08;;;15.05;;
50549;SDS011;36505;52.512;13.460;2023-12-04T00:42:46;30.02;;;14.00;;
50549;SDS011;36505;52.512;13.460;2023-12-04T00:45:11;34.30;;;15.85;;
50549;SDS011;36505;52.512;13.460;2023-12-04T00:47:37;33.58;;;16.52;;
50549;SDS011;36505;52.512;13.460;2023-12-04T00:50:02;36.55;;;16.77;;
50549;SDS011;36505;52.512;13.460;2023-12-04T00:52:28;32.10;;;14.68;;
50549;SDS011;36505;52.512;13.460;2023-12-04T00:54:53;29.83;;;14.60;;
50549;SDS011;36505;52.512;13.460;2023-12-04T00:57:19;36.13;;;15.13;;
50549;SDS011;36505;52.512;13.460;2023-12-04T00:59:44;32.38;;;15.02;;
50549;SDS011;36505;52.512;13.460;2023-12-04T01:02:09;32.15;;;14.75;;
50549;SDS011;36505;52.512;13.460;2023-12-04T01:04:35;32.20;;;15.32;;
50549;SDS011;36505;52.512;13.460;2023-12-04T01:07:00;32.08;;;15.10;;
50549;SDS011;36505;52.512;13.460;2023-12-04T01:09:26;39.47;;;15.93;;
50549;SDS011;36505;52.512;13.460;2023-12-04T01:11:52;34.63;;;14.75;;
50549;SDS011;36505;52.512;13.460;2023-12-04T01:14:18;31.27;;;14.50;;
50549;SDS011;36505;52.512;13.460;2023-12-04T01:16:43;33.58;;;14.93;;
50549;SDS011;36505;52.512;13.460;2023-12-04T01:19:08;36.70;;;16.35;;
50549;SDS011;36505;52.512;13.460;2023-12-04T01:21:35;36.22;;;14.70;;
50549;SDS011;36505;52.512;13.460;2023-12-04T01:24:00;29.25;;;14.38;;
50549;SDS011;36505;52.512;13.460;2023-12-04T01:26:25;33.70;;;16.00;;
50549;SDS011;36505;52.512;13.460;2023-12-04T01:28:51;32.53;;;14.38;;
50549;SDS011;36505;52.512;13.460;2023-12-04T01:31:16;36.28;;;15.68;;
50549;SDS011;36505;52.512;13.460;2023-12-04T01:33:41;32.30;;;14.77;;
50549;SDS011;36505;52.512;13.460;2023-12-04T01:36:07;32.58;;;14.48;;
50549;SDS011;36505;52.512;13.460;2023-12-04T01:38:33;33.33;;;15.77;;
50549;SDS011;36505;52.512;13.460;2023-12-04T01:40:58;38.20;;;16.30;;
50549;SDS011;36505;52.512;13.460;2023-12-04T01:43:23;35.05;;;14.27;;
50549;SDS011;36505;52.512;13.460;2023-12-04T01:45:49;32.72;;;14.98;;
50549;SDS011;36505;52.512;13.460;2023-12-04T01:48:14;36.03;;;14.80;;
50549;SDS011;36505;52.512;13.460;2023-12-04T01:50:40;33.55;;;15.38;;
50549;SDS011;36505;52.512;13.460;2023-12-04T01:53:06;36.03;;;16.50;;
50549;SDS011;36505;52.512;13.460;2023-12-04T01:55:32;31.27;;;14.30;;
50549;SDS011;36505;52.512;13.460;2023-12-04T01:58:00;33.60;;;15.95;;
50549;SDS011;36505;52.512;13.460;2023-12-04T02:00:28;33.72;;;15.55;;
50549;SDS011;36505;52.512;13.460;2023-12-04T02:02:55;36.92;;;15.63;;
50549;SDS011;36505;52.512;13.460;2023-12-04T02:05:21;38.03;;;15.48;;
50549;SDS011;36505;52.512;13.460;2023-12-04T02:07:47;36.22;;;15.63;;
50549;SDS011;36505;52.512;13.460;2023-12-04T02:10:13;34.55;;;15.18;;
50549;SDS011;36505;52.512;13.460;2023-12-04T02:12:38;35.25;;;15.02;;
50549;SDS011;36505;52.512;13.460;2023-12-04T02:15:04;35.22;;;15.30;;
50549;SDS011;36505;52.512;13.460;2023-12-04T02:17:30;35.05;;;15.50;;
50549;SDS011;36505;52.512;13.460;2023-12-04T02:19:57;36.70;;;16.08;;
50549;SDS011;36505;52.512;13.460;2023-12-04T02:22:22;35.67;;;16.05;;
50549;SDS011;36505;52.512;13.460;2023-12-04T02:24:48;34.05;;;15.95;;
50549;SDS011;36505;52.512;13.460;2023-12-04T02:29:59;35.80;;;14.60;;
50549;SDS011;36505;52.512;13.460;2023-12-04T02:32:30;35.67;;;16.27;;
50549;SDS011;36505;52.512;13.460;2023-12-04T02:34:56;34.05;;;16.88;;
50549;SDS011;36505;52.512;13.460;2023-12-04T02:37:24;32.45;;;16.70;;
50549;SDS011;36505;52.512;13.460;2023-12-04T02:39:51;36.10;;;15.80;;
50549;SDS011;36505;52.512;13.460;2023-12-04T02:42:20;36.47;;;15.35;;
50549;SDS011;36505;52.512;13.460;2023-12-04T02:44:47;34.15;;;15.32;;
50549;SDS011;36505;52.512;13.460;2023-12-04T02:47:12;32.92;;;14.85;;
50549;SDS011;36505;52.512;13.460;2023-12-04T02:49:38;32.53;;;14.18;;
50549;SDS011;36505;52.512;13.460;2023-12-04T02:52:03;37.70;;;15.45;;
50549;SDS011;36505;52.512;13.460;2023-12-04T02:54:29;37.20;;;16.17;;
50549;SDS011;36505;52.512;13.460;2023-12-04T02:56:54;32.28;;;15.50;;
50549;SDS011;36505;52.512;13.460;2023-12-04T02:59:20;37.35;;;15.88;;
50549;SDS011;36505;52.512;13.460;2023-12-04T03:01:45;35.80;;;15.25;;
50549;SDS011;36505;52.512;13.460;2023-12-04T03:04:11;32.67;;;14.90;;
50549;SDS011;36505;52.512;13.460;2023-12-04T03:06:36;37.08;;;16.13;;
50549;SDS011;36505;52.512;13.460;2023-12-04T03:09:02;36.80;;;16.83;;
50549;SDS011;36505;52.512;13.460;2023-12-04T03:11:29;39.13;;;16.85;;
50549;SDS011;36505;52.512;13.460;2023-12-04T03:13:54;44.92;;;17.50;;
50549;SDS011;36505;52.512;13.460;2023-12-04T03:16:20;35.05;;;15.80;;
50549;SDS011;36505;52.512;13.460;2023-12-04T03:18:45;39.10;;;16.42;;
50549;SDS011;36505;52.512;13.460;2023-12-04T03:21:11;35.25;;;16.67;;
50549;SDS011;36505;52.512;13.460;2023-12-04T03:23:36;38.53;;;17.63;;
50549;SDS011;36505;52.512;13.460;2023-12-04T03:26:02;35.95;;;15.38;;
50549;SDS011;36505;52.512;13.460;2023-12-04T03:28:28;36.47;;;16.55;;
50549;SDS011;36505;52.512;13.460;2023-12-04T03:30:53;31.48;;;15.20;;
50549;SDS011;36505;52.512;13.460;2023-12-04T03:33:18;34.90;;;16.15;;
50549;SDS011;36505;52.512;13.460;2023-12-04T03:35:44;32.75;;;16.40;;
50549;SDS011;36505;52.512;13.460;2023-12-04T03:38:09;35.47;;;15.95;;
50549;SDS011;36505;52.512;13.460;2023-12-04T03:40:34;36.80;;;16.80;;
50549;SDS011;36505;52.512;13.460;2023-12-04T03:43:00;36.20;;;16.60;;
50549;SDS011;36505;52.512;13.460;2023-12-04T03:45:26;37.20;;;16.10;;
50549;SDS011;36505;52.512;13.460;2023-12-04T03:47:52;36.03;;;15.05;;
50549;SDS011;36505;52.512;13.460;2023-12-04T03:50:18;35.92;;;15.50;;
50549;SDS011;36505;52.512;13.460;2023-12-04T03:52:43;36.08;;;15.50;;
50549;SDS011;36505;52.512;13.460;2023-12-04T03:55:09;36.80;;;15.98;;
50549;SDS011;36505;52.512;13.460;2023-12-04T03:57:35;38.35;;;16.30;;
50549;SDS011;36505;52.512;13.460;2023-12-04T04:00:00;42.58;;;17.83;;
50549;SDS011;36505;52.512;13.460;2023-12-04T04:02:26;36.72;;;15.43;;
50549;SDS011;36505;52.512;13.460;2023-12-04T04:04:51;34.90;;;16.55;;
50549;SDS011;36505;52.512;13.460;2023-12-04T04:07:16;38.22;;;17.27;;
50549;SDS011;36505;52.512;13.460;2023-12-04T04:09:45;38.08;;;16.55;;
50549;SDS011;36505;52.512;13.460;2023-12-04T04:12:10;32.83;;;14.35;;
50549;SDS011;36505;52.512;13.460;2023-12-04T04:14:36;41.45;;;16.92;;
50549;SDS011;36505;52.512;13.460;2023-12-04T04:17:02;37.33;;;15.00;;
50549;SDS011;36505;52.512;13.460;2023-12-04T04:19:27;39.78;;;17.13;;
50549;SDS011;36505;52.512;13.460;2023-12-04T04:21:52;33.25;;;15.00;;
50549;SDS011;36505;52.512;13.460;2023-12-04T04:24:18;31.45;;;13.68;;
50549;SDS011;36505;52.512;13.460;2023-12-04T04:26:43;41.53;;;17.77;;
50549;SDS011;36505;52.512;13.460;2023-12-04T04:29:08;33.15;;;15.40;;
50549;SDS011;36505;52.512;13.460;2023-12-04T04:31:34;37.83;;;16.42;;
50549;SDS011;36505;52.512;13.460;2023-12-04T04:34:00;33.05;;;15.85;;
50549;SDS011;36505;52.512;13.460;2023-12-04T04:36:26;37.28;;;14.50;;
50549;SDS011;36505;52.512;13.460;2023-12-04T04:38:51;37.47;;;16.02;;
50549;SDS011;36505;52.512;13.460;2023-12-04T04:41:16;37.30;;;15.77;;
50549;SDS011;36505;52.512;13.460;2023-12-04T04:43:42;36.78;;;16.33;;
50549;SDS011;36505;52.512;13.460;2023-12-04T04:46:07;38.70;;;15.00;;
50549;SDS011;36505;52.512;13.460;2023-12-04T04:48:33;34.20;;;17.55;;
50549;SDS011;36505;52.512;13.460;2023-12-04T04:50:58;35.28;;;15.07;;
50549;SDS011;36505;52.512;13.460;2023-12-04T04:53:23;38.05;;;15.65;;
50549;SDS011;36505;52.512;13.460;2023-12-04T04:55:49;34.83;;;16.30;;
50549;SDS011;36505;52.512;13.460;2023-12-04T04:58:15;34.47;;;16.05;;
50549;SDS011;36505;52.512;13.460;2023-12-04T05:00:41;36.97;;;16.73;;
50549;SDS011;36505;52.512;13.460;2023-12-04T05:03:07;27.77;;;14.77;;
50549;SDS011;36505;52.512;13.460;2023-12-04T05:05:32;32.53;;;14.27;;
50549;SDS011;36505;52.512;13.460;2023-12-04T05:07:57;33.33;;;15.45;;
50549;SDS011;36505;52.512;13.460;2023-12-04T05:10:23;35.80;;;15.85;;
50549;SDS011;36505;52.512;13.460;2023-12-04T05:12:48;39.97;;;16.67;;
50549;SDS011;36505;52.512;13.460;2023-12-04T05:15:13;33.67;;;15.38;;
50549;SDS011;36505;52.512;13.460;2023-12-04T05:17:39;32.17;;;14.55;;
50549;SDS011;36505;52.512;13.460;2023-12-04T05:20:05;35.38;;;15.32;;
50549;SDS011;36505;52.512;13.460;2023-12-04T05:22:32;33.30;;;15.25;;
50549;SDS011;36505;52.512;13.460;2023-12-04T05:24:57;33.05;;;16.20;;
50549;SDS011;36505;52.512;13.460;2023-12-04T05:27:22;31.15;;;14.90;;
50549;SDS011;36505;52.512;13.460;2023-12-04T05:29:48;36.20;;;15.68;;
50549;SDS011;36505;52.512;13.460;2023-12-04T05:32:13;35.05;;;14.82;;
50549;SDS011;36505;52.512;13.460;2023-12-04T05:34:38;32.72;;;14.75;;
50549;SDS011;36505;52.512;13.460;2023-12-04T05:37:04;30.35;;;13.63;;
50549;SDS011;36505;52.512;13.460;2023-12-04T05:39:29;34.78;;;15.18;;
50549;SDS011;36505;52.512;13.460;2023-12-04T05:41:55;37.88;;;14.35;;
50549;SDS011;36505;52.512;13.460;2023-12-04T05:44:20;31.65;;;14.82;;
50549;SDS011;36505;52.512;13.460;2023-12-04T05:46:45;33.83;;;16.08;;
50549;SDS011;36505;52.512;13.460;2023-12-04T05:49:11;30.40;;;14.93;;
50549;SDS011;36505;52.512;13.460;2023-12-04T05:51:36;32.42;;;15.68;;
50549;SDS011;36505;52.512;13.460;2023-12-04T05:54:02;35.47;;;15.57;;
50549;SDS011;36505;52.512;13.460;2023-12-04T05:56:27;33.60;;;14.95;;
50549;SDS011;36505;52.512;13.460;2023-12-04T05:58:52;27.60;;;13.50;;
50549;SDS011;36505;52.512;13.460;2023-12-04T06:01:18;32.50;;;14.73;;
50549;SDS011;36505;52.512;13.460;2023-12-04T06:03:43;34.65;;;13.88;;
50549;SDS011;36505;52.512;13.460;2023-12-04T06:06:09;35.20;;;14.50;;
50549;SDS011;36505;52.512;13.460;2023-12-04T06:08:34;32.05;;;14.00;;
50549;SDS011;36505;52.512;13.460;2023-12-04T06:10:59;34.90;;;16.23;;
50549;SDS011;36505;52.512;13.460;2023-12-04T06:13:25;30.80;;;14.70;;
50549;SDS011;36505;52.512;13.460;2023-12-04T06:15:50;34.80;;;15.25;;
50549;SDS011;36505;52.512;13.460;2023-12-04T06:18:16;32.50;;;13.88;;
50549;SDS011;36505;52.512;13.460;2023-12-04T06:20:41;34.47;;;15.05;;
50549;SDS011;36505;52.512;13.460;2023-12-04T06:23:06;30.67;;;14.77;;
50549;SDS011;36505;52.512;13.460;2023-12-04T06:25:32;32.92;;;14.45;;
50549;SDS011;36505;52.512;13.460;2023-12-04T06:27:58;33.63;;;15.10;;
50549;SDS011;36505;52.512;13.460;2023-12-04T06:30:23;30.10;;;14.82;;
50549;SDS011;36505;52.512;13.460;2023-12-04T06:32:49;35.17;;;16.02;;
50549;SDS011;36505;52.512;13.460;2023-12-04T06:35:15;31.48;;;15.00;;
50549;SDS011;36505;52.512;13.460;2023-12-04T06:37:40;31.92;;;14.38;;
50549;SDS011;36505;52.512;13.460;2023-12-04T06:40:06;34.15;;;14.25;;
50549;SDS011;36505;52.512;13.460;2023-12-04T06:42:36;33.97;;;16.10;;
50549;SDS011;36505;52.512;13.460;2023-12-04T06:45:02;29.90;;;14.35;;
50549;SDS011;36505;52.512;13.460;2023-12-04T06:47:28;35.97;;;15.48;;
50549;SDS011;36505;52.512;13.460;2023-12-04T06:49:56;27.98;;;14.52;;
50549;SDS011;36505;52.512;13.460;2023-12-04T06:52:22;31.80;;;15.25;;
50549;SDS011;36505;52.512;13.460;2023-12-04T06:54:47;37.97;;;15.02;;
50549;SDS011;36505;52.512;13.460;2023-12-04T06:57:12;38.30;;;15.90;;
50549;SDS011;36505;52.512;13.460;2023-12-04T06:59:40;34.75;;;15.80;;
50549;SDS011;36505;52.512;13.460;2023-12-04T07:02:06;39.20;;;17.20;;
50549;SDS011;36505;52.512;13.460;2023-12-04T07:04:32;34.33;;;15.70;;
50549;SDS011;36505;52.512;13.460;2023-12-04T07:06:57;32.95;;;14.93;;
50549;SDS011;36505;52.512;13.460;2023-12-04T07:09:26;36.40;;;15.40;;
50549;SDS011;36505;52.512;13.460;2023-12-04T07:11:52;34.17;;;14.25;;
50549;SDS011;36505;52.512;13.460;2023-12-04T07:14:18;35.92;;;15.45;;
50549;SDS011;36505;52.512;13.460;2023-12-04T07:16:43;36.03;;;16.55;;
50549;SDS011;36505;52.512;13.460;2023-12-04T07:19:09;33.80;;;14.75;;
50549;SDS011;36505;52.512;13.460;2023-12-04T07:21:36;31.52;;;14.50;;
50549;SDS011;36505;52.512;13.460;2023-12-04T07:24:02;32.85;;;15.10;;
50549;SDS011;36505;52.512;13.460;2023-12-04T07:26:27;32.63;;;15.10;;
50549;SDS011;36505;52.512;13.460;2023-12-04T07:28:53;32.47;;;14.60;;
50549;SDS011;36505;52.512;13.460;2023-12-04T07:31:18;33.35;;;15.73;;
50549;SDS011;36505;52.512;13.460;2023-12-04T07:33:44;33.78;;;15.20;;
50549;SDS011;36505;52.512;13.460;2023-12-04T07:36:09;33.67;;;13.93;;
50549;SDS011;36505;52.512;13.460;2023-12-04T07:38:35;33.08;;;15.10;;
50549;SDS011;36505;52.512;13.460;2023-12-04T07:41:00;28.90;;;14.48;;
50549;SDS011;36505;52.512;13.460;2023-12-04T07:43:26;30.40;;;14.63;;
50549;SDS011;36505;52.512;13.460;2023-12-04T07:45:52;33.78;;;15.32;;
50549;SDS011;36505;52.512;13.460;2023-12-04T07:48:19;31.15;;;14.57;;
50549;SDS011;36505;52.512;13.460;2023-12-04T07:50:45;32.15;;;13.65;;
50549;SDS011;36505;52.512;13.460;2023-12-04T07:53:10;32.47;;;14.27;;
50549;SDS011;36505;52.512;13.460;2023-12-04T07:55:37;33.95;;;15.10;;
50549;SDS011;36505;52.512;13.460;2023-12-04T07:58:02;33.45;;;15.50;;
50549;SDS011;36505;52.512;13.460;2023-12-04T08:00:28;30.90;;;14.13;;
50549;SDS011;36505;52.512;13.460;2023-12-04T08:02:53;32.03;;;14.38;;
50549;SDS011;36505;52.512;13.460;2023-12-04T08:05:18;32.45;;;14.70;;
50549;SDS011;36505;52.512;13.460;2023-12-04T08:07:44;33.85;;;15.20;;
50549;SDS011;36505;52.512;13.460;2023-12-04T08:10:10;34.60;;;15.60;;
50549;SDS011;36505;52.512;13.460;2023-12-04T08:12:35;28.80;;;14.63;;
50549;SDS011;36505;52.512;13.460;2023-12-04T08:15:01;32.75;;;15.98;;
50549;SDS011;36505;52.512;13.460;2023-12-04T08:17:28;28.83;;;14.40;;
50549;SDS011;36505;52.512;13.460;2023-12-04T08:19:53;27.67;;;13.32;;
50549;SDS011;36505;52.512;13.460;2023-12-04T08:22:19;28.63;;;13.48;;
50549;SDS011;36505;52.512;13.460;2023-12-04T08:24:45;33.40;;;14.95;;
50549;SDS011;36505;52.512;13.460;2023-12-04T08:27:10;27.15;;;13.60;;
50549;SDS011;36505;52.512;13.460;2023-12-04T08:29:36;32.85;;;15.23;;
50549;SDS011;36505;52.512;13.460;2023-12-04T08:32:01;27.92;;;13.57;;
50549;SDS011;36505;52.512;13.460;2023-12-04T08:34:26;36.30;;;15.50;;
50549;SDS011;36505;52.512;13.460;2023-12-04T08:36:52;25.60;;;13.25;;
50549;SDS011;36505;52.512;13.460;2023-12-04T08:39:17;30.40;;;13.70;;
50549;SDS011;36505;52.512;13.460;2023-12-04T08:41:46;32.97;;;14.55;;
50549;SDS011;36505;52.512;13.460;2023-12-04T08:44:14;32.00;;;14.45;;
50549;SDS011;36505;52.512;13.460;2023-12-04T08:46:40;31.38;;;14.68;;
50549;SDS011;36505;52.512;13.460;2023-12-04T08:49:07;30.77;;;15.38;;
50549;SDS011;36505;52.512;13.460;2023-12-04T08:51:32;30.42;;;15.30;;
50549;SDS011;36505;52.512;13.460;2023-12-04T08:53:57;31.55;;;14.65;;
50549;SDS011;36505;52.512;13.460;2023-12-04T08:56:23;28.90;;;14.07;;
50549;SDS011;36505;52.512;13.460;2023-12-04T08:58:48;30.48;;;14.98;;
50549;SDS011;36505;52.512;13.460;2023-12-04T09:01:15;30.08;;;14.23;;
50549;SDS011;36505;52.512;13.460;2023-12-04T09:03:40;31.42;;;15.05;;
50549;SDS011;36505;52.512;13.460;2023-12-04T09:06:06;33.22;;;15.20;;
50549;SDS011;36505;52.512;13.460;2023-12-04T09:08:31;36.30;;;14.77;;
50549;SDS011;36505;52.512;13.460;2023-12-04T09:10:57;34.22;;;14.80;;
50549;SDS011;36505;52.512;13.460;2023-12-04T09:13:23;32.70;;;15.23;;
50549;SDS011;36505;52.512;13.460;2023-12-04T09:15:48;30.05;;;14.23;;
50549;SDS011;36505;52.512;13.460;2023-12-04T09:18:14;28.48;;;14.10;;
50549;SDS011;36505;52.512;13.460;2023-12-04T09:20:40;32.47;;;15.63;;
50549;SDS011;36505;52.512;13.460;2023-12-04T09:23:06;29.25;;;13.45;;
50549;SDS011;36505;52.512;13.460;2023-12-04T09:25:31;33.40;;;14.73;;
50549;SDS011;36505;52.512;13.460;2023-12-04T09:27:57;27.67;;;13.82;;
50549;SDS011;36505;52.512;13.460;2023-12-04T09:30:22;28.27;;;12.80;;
50549;SDS011;36505;52.512;13.460;2023-12-04T09:32:48;23.63;;;12.63;;
50549;SDS011;36505;52.512;13.460;2023-12-04T09:35:14;26.63;;;13.68;;
50549;SDS011;36505;52.512;13.460;2023-12-04T09:37:40;29.48;;;13.05;;
50549;SDS011;36505;52.512;13.460;2023-12-04T09:40:06;30.10;;;14.77;;
50549;SDS011;36505;52.512;13.460;2023-12-04T09:42:33;30.88;;;13.60;;
50549;SDS011;36505;52.512;13.460;2023-12-04T09:44:59;29.15;;;14.73;;
50549;SDS011;36505;52.512;13.460;2023-12-04T09:47:25;27.25;;;13.52;;
50549;SDS011;36505;52.512;13.460;2023-12-04T09:49:51;28.45;;;13.07;;
50549;SDS011;36505;52.512;13.460;2023-12-04T09:52:19;24.10;;;12.07;;
50549;SDS011;36505;52.512;13.460;2023-12-04T09:54:45;26.17;;;12.65;;
50549;SDS011;36505;52.512;13.460;2023-12-04T09:57:10;28.52;;;12.75;;
50549;SDS011;36505;52.512;13.460;2023-12-04T09:59:37;25.88;;;13.63;;
50549;SDS011;36505;52.512;13.460;2023-12-04T10:02:03;30.95;;;14.68;;
50549;SDS011;36505;52.512;13.460;2023-12-04T10:04:30;29.08;;;13.57;;
50549;SDS011;36505;52.512;13.460;2023-12-04T10:06:57;24.45;;;12.57;;
50549;SDS011;36505;52.512;13.460;2023-12-04T10:09:22;26.58;;;13.45;;
50549;SDS011;36505;52.512;13.460;2023-12-04T10:11:48;22.85;;;12.48;;
50549;SDS011;36505;52.512;13.460;2023-12-04T10:14:19;25.75;;;13.02;;
50549;SDS011;36505;52.512;13.460;2023-12-04T10:16:46;26.00;;;12.40;;
50549;SDS011;36505;52.512;13.460;2023-12-04T10:19:18;27.17;;;12.45;;
50549;SDS011;36505;52.512;13.460;2023-12-04T10:21:57;24.23;;;11.32;;
50549;SDS011;36505;52.512;13.460;2023-12-04T10:27:03;29.15;;;14.13;;
50549;SDS011;36505;52.512;13.460;2023-12-04T10:29:39;28.08;;;11.68;;
50549;SDS011;36505;52.512;13.460;2023-12-04T10:32:08;25.15;;;12.75;;
50549;SDS011;36505;52.512;13.460;2023-12-04T10:34:33;23.95;;;11.93;;
50549;SDS011;36505;52.512;13.460;2023-12-04T10:36:59;25.45;;;11.65;;
50549;SDS011;36505;52.512;13.460;2023-12-04T10:39:24;28.55;;;13.90;;
50549;SDS011;36505;52.512;13.460;2023-12-04T10:42:03;25.90;;;12.10;;
50549;SDS011;36505;52.512;13.460;2023-12-04T10:44:31;26.42;;;12.23;;
50549;SDS011;36505;52.512;13.460;2023-12-04T10:46:57;23.10;;;12.05;;
50549;SDS011;36505;52.512;13.460;2023-12-04T10:49:26;23.98;;;11.57;;
50549;SDS011;36505;52.512;13.460;2023-12-04T10:51:53;21.02;;;12.13;;
50549;SDS011;36505;52.512;13.460;2023-12-04T10:54:22;25.75;;;13.02;;
50549;SDS011;36505;52.512;13.460;2023-12-04T10:56:48;23.75;;;11.63;;
50549;SDS011;36505;52.512;13.460;2023-12-04T10:59:18;26.30;;;13.20;;
50549;SDS011;36505;52.512;13.460;2023-12-04T11:01:50;30.02;;;13.63;;
50549;SDS011;36505;52.512;13.460;2023-12-04T11:04:19;23.80;;;11.38;;
50549;SDS011;36505;52.512;13.460;2023-12-04T11:06:47;22.42;;;11.32;;
50549;SDS011;36505;52.512;13.460;2023-12-04T11:09:17;22.73;;;10.88;;
50549;SDS011;36505;52.512;13.460;2023-12-04T11:11:43;26.45;;;12.20;;
50549;SDS011;36505;52.512;13.460;2023-12-04T11:14:13;24.85;;;11.55;;
50549;SDS011;36505;52.512;13.460;2023-12-04T11:16:47;22.27;;;11.52;;
50549;SDS011;36505;52.512;13.460;2023-12-04T11:22:17;23.80;;;12.43;;
50549;SDS011;36505;52.512;13.460;2023-12-04T11:24:45;22.15;;;11.27;;
50549;SDS011;36505;52.512;13.460;2023-12-04T11:27:12;24.23;;;11.82;;
50549;SDS011;36505;52.512;13.460;2023-12-04T11:29:39;24.98;;;12.43;;
50549;SDS011;36505;52.512;13.460;2023-12-04T11:32:05;21.35;;;11.18;;
50549;SDS011;36505;52.512;13.460;2023-12-04T11:34:32;24.30;;;11.85;;
50549;SDS011;36505;52.512;13.460;2023-12-04T11:36:57;23.80;;;11.80;;
50549;SDS011;36505;52.512;13.460;2023-12-04T11:39:24;21.13;;;10.95;;
50549;SDS011;36505;52.512;13.460;2023-12-04T11:41:51;25.75;;;12.07;;
50549;SDS011;36505;52.512;13.460;2023-12-04T11:44:16;21.15;;;11.02;;
50549;SDS011;36505;52.512;13.460;2023-12-04T11:46:56;22.77;;;10.32;;
50549;SDS011;36505;52.512;13.460;2023-12-04T11:51:57;20.77;;;10.77;;
50549;SDS011;36505;52.512;13.460;2023-12-04T11:54:27;22.38;;;10.93;;
50549;SDS011;36505;52.512;13.460;2023-12-04T11:56:57;23.13;;;11.40;;
50549;SDS011;36505;52.512;13.460;2023-12-04T11:59:23;24.60;;;11.07;;
50549;SDS011;36505;52.512;13.460;2023-12-04T12:01:58;17.17;;;9.93;;
50549;SDS011;36505;52.512;13.460;2023-12-04T12:04:23;20.77;;;10.80;;
50549;SDS011;36505;52.512;13.460;2023-12-04T12:06:50;20.08;;;11.38;;
50549;SDS011;36505;52.512;13.460;2023-12-04T12:09:15;25.65;;;11.35;;
50549;SDS011;36505;52.512;13.460;2023-12-04T12:11:41;21.15;;;10.38;;
50549;SDS011;36505;52.512;13.460;2023-12-04T12:14:07;23.08;;;11.73;;
50549;SDS011;36505;52.512;13.460;2023-12-04T12:16:32;20.55;;;9.88;;
50549;SDS011;36505;52.512;13.460;2023-12-04T12:18:57;21.77;;;10.07;;
50549;SDS011;36505;52.512;13.460;2023-12-04T12:21:23;20.40;;;10.82;;
50549;SDS011;36505;52.512;13.460;2023-12-04T12:23:48;18.73;;;10.40;;
50549;SDS011;36505;52.512;13.460;2023-12-04T12:26:14;23.20;;;10.43;;
50549;SDS011;36505;52.512;13.460;2023-12-04T12:28:39;20.98;;;10.25;;
50549;SDS011;36505;52.512;13.460;2023-12-04T12:31:04;19.45;;;9.73;;
50549;SDS011;36505;52.512;13.460;2023-12-04T12:33:30;22.92;;;10.82;;
50549;SDS011;36505;52.512;13.460;2023-12-04T12:35:56;20.48;;;9.93;;
50549;SDS011;36505;52.512;13.460;2023-12-04T12:38:23;17.77;;;9.20;;
50549;SDS011;36505;52.512;13.460;2023-12-04T12:40:48;19.33;;;10.65;;
50549;SDS011;36505;52.512;13.460;2023-12-04T12:43:14;18.08;;;9.85;;
50549;SDS011;36505;52.512;13.460;2023-12-04T12:45:39;20.63;;;10.63;;
50549;SDS011;36505;52.512;13.460;2023-12-04T12:48:09;22.30;;;10.10;;
50549;SDS011;36505;52.512;13.460;2023-12-04T12:50:35;17.48;;;10.45;;
50549;SDS011;36505;52.512;13.460;2023-12-04T12:53:01;18.95;;;9.63;;
50549;SDS011;36505;52.512;13.460;2023-12-04T12:55:27;19.77;;;10.95;;
50549;SDS011;36505;52.512;13.460;2023-12-04T12:57:55;19.05;;;10.13;;
50549;SDS011;36505;52.512;13.460;2023-12-04T13:00:20;20.42;;;10.45;;
50549;SDS011;36505;52.512;13.460;2023-12-04T13:02:47;19.98;;;9.95;;
50549;SDS011;36505;52.512;13.460;2023-12-04T13:05:13;19.75;;;9.65;;
50549;SDS011;36505;52.512;13.460;2023-12-04T13:07:38;17.52;;;9.73;;
50549;SDS011;36505;52.512;13.460;2023-12-04T13:10:04;17.75;;;9.32;;
50549;SDS011;36505;52.512;13.460;2023-12-04T13:12:30;22.83;;;10.30;;
50549;SDS011;36505;52.512;13.460;2023-12-04T13:14:57;21.35;;;10.60;;
50549;SDS011;36505;52.512;13.460;2023-12-04T13:17:22;20.20;;;10.43;;
50549;SDS011;36505;52.512;13.460;2023-12-04T13:19:47;19.38;;;9.60;;
50549;SDS011;36505;52.512;13.460;2023-12-04T13:22:13;18.65;;;9.57;;
50549;SDS011;36505;52.512;13.460;2023-12-04T13:24:38;17.98;;;9.25;;
50549;SDS011;36505;52.512;13.460;2023-12-04T13:27:05;21.73;;;11.27;;
50549;SDS011;36505;52.512;13.460;2023-12-04T13:29:30;19.65;;;10.10;;
50549;SDS011;36505;52.512;13.460;2023-12-04T13:31:56;22.88;;;10.55;;
50549;SDS011;36505;52.512;13.460;2023-12-04T13:34:21;22.38;;;9.90;;
50549;SDS011;36505;52.512;13.460;2023-12-04T13:36:47;21.27;;;10.45;;
50549;SDS011;36505;52.512;13.460;2023-12-04T13:39:12;21.48;;;11.25;;
50549;SDS011;36505;52.512;13.460;2023-12-04T13:41:52;20.30;;;10.32;;
50549;SDS011;36505;52.512;13.460;2023-12-04T13:44:36;21.55;;;10.38;;
50549;SDS011;36505;52.512;13.460;2023-12-04T13:47:02;22.85;;;10.20;;
50549;SDS011;36505;52.512;13.460;2023-12-04T13:49:28;18.52;;;10.05;;
50549;SDS011;36505;52.512;13.460;2023-12-04T13:51:53;21.27;;;10.20;;
50549;SDS011;36505;52.512;13.460;2023-12-04T13:54:20;19.63;;;10.38;;
50549;SDS011;36505;52.512;13.460;2023-12-04T13:56:49;23.58;;;9.57;;
50549;SDS011;36505;52.512;13.460;2023-12-04T13:59:21;24.70;;;10.85;;
50549;SDS011;36505;52.512;13.460;2023-12-04T14:01:49;20.80;;;11.18;;
50549;SDS011;36505;52.512;13.460;2023-12-04T14:04:16;19.20;;;9.77;;
50549;SDS011;36505;52.512;13.460;2023-12-04T14:06:41;22.05;;;9.75;;
50549;SDS011;36505;52.512;13.460;2023-12-04T14:09:07;21.10;;;10.63;;
50549;SDS011;36505;52.512;13.460;2023-12-04T14:11:35;21.27;;;10.70;;
50549;SDS011;36505;52.512;13.460;2023-12-04T14:14:01;19.65;;;9.88;;